sensor_id;sensor_type;location;lat;lon;timestamp;pressure;altitude;pressure_sealevel;temperature;humidity
74615;BME280;63121;51.458;-0.110;2023-03-23T00:02:27;99536.50;;;13.53;66.70
74615;BME280;63121;51.458;-0.110;2023-03-23T00:04:54;99551.16;;;13.11;67.74
74615;BME280;63121;51.458;-0.110;2023-03-23T00:07:21;99540.22;;;13.47;66.27
74615;BME280;63121;51.458;-0.110;2023-03-23T00:09:53;99541.44;;;13.38;65.71
74615;BME280;63121;51.458;-0.110;2023-03-23T00:12:22;99550.75;;;13.42;64.65
74615;BME280;63121;51.458;-0.110;2023-03-23T00:14:54;99549.81;;;13.45;65.13
74615;BME280;63121;51.458;-0.110;2023-03-23T00:17:20;99547.81;;;13.52;63.79
74615;BME280;63121;51.458;-0.110;2023-03-23T00:19:45;99562.69;;;13.88;61.95
74615;BME280;63121;51.458;-0.110;2023-03-23T00:22:15;99565.09;;;13.72;62.06
74615;BME280;63121;51.458;-0.110;2023-03-23T00:24:42;99559.38;;;13.63;61.98
74615;BME280;63121;51.458;-0.110;2023-03-23T00:27:08;99556.03;;;13.82;61.60
74615;BME280;63121;51.458;-0.110;2023-03-23T00:29:34;99566.28;;;13.85;60.60
74615;BME280;63121;51.458;-0.110;2023-03-23T00:31:59;99576.25;;;13.33;61.35
74615;BME280;63121;51.458;-0.110;2023-03-23T00:34:25;99567.00;;;13.68;60.65
74615;BME280;63121;51.458;-0.110;2023-03-23T00:36:52;99570.50;;;13.88;60.60
74615;BME280;63121;51.458;-0.110;2023-03-23T00:39:25;99591.34;;;13.85;59.83
74615;BME280;63121;51.458;-0.110;2023-03-23T00:41:52;99586.88;;;13.68;60.06
74615;BME280;63121;51.458;-0.110;2023-03-23T00:44:18;99588.38;;;13.73;60.06
74615;BME280;63121;51.458;-0.110;2023-03-23T00:46:48;99584.88;;;13.74;59.27
74615;BME280;63121;51.458;-0.110;2023-03-23T00:49:18;99597.78;;;13.96;60.08
74615;BME280;63121;51.458;-0.110;2023-03-23T00:51:44;99601.66;;;13.66;60.62
74615;BME280;63121;51.458;-0.110;2023-03-23T00:54:09;99603.38;;;13.87;59.76
74615;BME280;63121;51.458;-0.110;2023-03-23T00:56:36;99605.25;;;13.83;60.23
74615;BME280;63121;51.458;-0.110;2023-03-23T00:59:02;99609.34;;;13.25;61.52
74615;BME280;63121;51.458;-0.110;2023-03-23T01:01:28;99618.78;;;13.90;60.36
74615;BME280;63121;51.458;-0.110;2023-03-23T01:03:53;99617.47;;;13.59;59.84
74615;BME280;63121;51.458;-0.110;2023-03-23T01:06:28;99624.59;;;13.54;59.26
74615;BME280;63121;51.458;-0.110;2023-03-23T01:08:56;99611.66;;;13.75;59.86
74615;BME280;63121;51.458;-0.110;2023-03-23T01:11:22;99616.00;;;13.95;58.94
74615;BME280;63121;51.458;-0.110;2023-03-23T01:13:47;99630.59;;;13.77;59.40
74615;BME280;63121;51.458;-0.110;2023-03-23T01:16:13;99625.28;;;13.80;58.95
74615;BME280;63121;51.458;-0.110;2023-03-23T01:18:38;99631.63;;;13.73;58.40
74615;BME280;63121;51.458;-0.110;2023-03-23T01:21:10;99615.03;;;13.97;57.72
74615;BME280;63121;51.458;-0.110;2023-03-23T01:23:36;99619.09;;;13.82;57.53
74615;BME280;63121;51.458;-0.110;2023-03-23T01:26:06;99621.34;;;13.92;57.25
74615;BME280;63121;51.458;-0.110;2023-03-23T01:28:33;99632.19;;;13.59;58.37
74615;BME280;63121;51.458;-0.110;2023-03-23T01:31:02;99630.97;;;13.68;57.88
74615;BME280;63121;51.458;-0.110;2023-03-23T01:33:28;99636.16;;;13.68;57.73
74615;BME280;63121;51.458;-0.110;2023-03-23T01:35:54;99619.78;;;13.88;57.33
74615;BME280;63121;51.458;-0.110;2023-03-23T01:38:19;99621.84;;;13.79;57.80
74615;BME280;63121;51.458;-0.110;2023-03-23T01:40:45;99635.69;;;13.14;58.54
74615;BME280;63121;51.458;-0.110;2023-03-23T01:43:14;99640.25;;;13.31;58.95
74615;BME280;63121;51.458;-0.110;2023-03-23T01:45:41;99640.72;;;13.83;57.92
74615;BME280;63121;51.458;-0.110;2023-03-23T01:48:17;99649.66;;;13.76;57.75
74615;BME280;63121;51.458;-0.110;2023-03-23T01:51:09;99647.72;;;13.81;57.66
74615;BME280;63121;51.458;-0.110;2023-03-23T01:53:41;99648.75;;;13.11;58.74
74615;BME280;63121;51.458;-0.110;2023-03-23T01:56:09;99650.44;;;13.78;57.68
74615;BME280;63121;51.458;-0.110;2023-03-23T01:58:38;99647.03;;;13.55;57.81
74615;BME280;63121;51.458;-0.110;2023-03-23T02:01:07;99644.97;;;13.63;57.41
74615;BME280;63121;51.458;-0.110;2023-03-23T02:03:38;99646.53;;;13.68;57.18
74615;BME280;63121;51.458;-0.110;2023-03-23T02:06:04;99645.94;;;13.17;58.56
74615;BME280;63121;51.458;-0.110;2023-03-23T02:08:31;99645.19;;;13.37;57.88
74615;BME280;63121;51.458;-0.110;2023-03-23T02:10:58;99661.69;;;13.56;57.90
74615;BME280;63121;51.458;-0.110;2023-03-23T02:13:24;99654.00;;;13.75;57.26
74615;BME280;63121;51.458;-0.110;2023-03-23T02:16:26;99665.28;;;13.08;58.58
74615;BME280;63121;51.458;-0.110;2023-03-23T02:22:02;99651.84;;;13.65;56.93
74615;BME280;63121;51.458;-0.110;2023-03-23T02:27:14;99658.19;;;13.57;57.76
74615;BME280;63121;51.458;-0.110;2023-03-23T02:35:06;99660.59;;;12.94;59.10
74615;BME280;63121;51.458;-0.110;2023-03-23T02:37:46;99655.78;;;12.85;59.32
74615;BME280;63121;51.458;-0.110;2023-03-23T02:40:20;99657.25;;;13.14;59.01
74615;BME280;63121;51.458;-0.110;2023-03-23T02:42:50;99665.16;;;12.88;59.37
74615;BME280;63121;51.458;-0.110;2023-03-23T02:45:17;99669.81;;;13.25;58.67
74615;BME280;63121;51.458;-0.110;2023-03-23T02:47:45;99672.22;;;12.84;59.69
74615;BME280;63121;51.458;-0.110;2023-03-23T02:50:14;99668.91;;;12.57;60.58
74615;BME280;63121;51.458;-0.110;2023-03-23T02:52:43;99664.94;;;12.94;59.69
74615;BME280;63121;51.458;-0.110;2023-03-23T02:55:10;99663.50;;;12.87;59.84
74615;BME280;63121;51.458;-0.110;2023-03-23T02:57:37;99652.78;;;12.96;59.58
74615;BME280;63121;51.458;-0.110;2023-03-23T03:00:04;99667.19;;;12.56;60.67
74615;BME280;63121;51.458;-0.110;2023-03-23T03:02:36;99663.13;;;12.74;60.39
74615;BME280;63121;51.458;-0.110;2023-03-23T03:05:12;99667.94;;;12.83;59.67
74615;BME280;63121;51.458;-0.110;2023-03-23T03:12:57;99666.88;;;12.65;60.67
74615;BME280;63121;51.458;-0.110;2023-03-23T03:18:18;99666.13;;;12.85;59.96
74615;BME280;63121;51.458;-0.110;2023-03-23T03:20:49;99664.59;;;12.32;61.49
74615;BME280;63121;51.458;-0.110;2023-03-23T03:23:17;99668.16;;;12.77;60.50
74615;BME280;63121;51.458;-0.110;2023-03-23T03:25:45;99663.50;;;12.63;60.84
74615;BME280;63121;51.458;-0.110;2023-03-23T03:28:16;99661.59;;;12.68;60.61
74615;BME280;63121;51.458;-0.110;2023-03-23T03:30:43;99669.41;;;12.90;60.07
74615;BME280;63121;51.458;-0.110;2023-03-23T03:33:10;99667.25;;;13.01;59.54
74615;BME280;63121;51.458;-0.110;2023-03-23T03:35:40;99673.34;;;12.77;60.72
74615;BME280;63121;51.458;-0.110;2023-03-23T03:38:10;99665.75;;;12.72;60.54
74615;BME280;63121;51.458;-0.110;2023-03-23T03:40:35;99674.00;;;12.58;60.90
74615;BME280;63121;51.458;-0.110;2023-03-23T03:43:02;99677.03;;;12.71;60.73
74615;BME280;63121;51.458;-0.110;2023-03-23T03:45:27;99674.28;;;12.27;62.00
74615;BME280;63121;51.458;-0.110;2023-03-23T03:47:53;99674.75;;;12.13;62.04
74615;BME280;63121;51.458;-0.110;2023-03-23T03:50:18;99675.19;;;12.50;61.02
74615;BME280;63121;51.458;-0.110;2023-03-23T03:52:43;99685.91;;;12.64;60.58
74615;BME280;63121;51.458;-0.110;2023-03-23T03:55:10;99677.28;;;12.40;61.56
74615;BME280;63121;51.458;-0.110;2023-03-23T03:57:36;99676.50;;;12.61;60.80
74615;BME280;63121;51.458;-0.110;2023-03-23T04:00:04;99684.34;;;12.58;60.66
74615;BME280;63121;51.458;-0.110;2023-03-23T04:02:41;99688.56;;;12.86;59.88
74615;BME280;63121;51.458;-0.110;2023-03-23T04:05:07;99684.06;;;12.68;60.20
74615;BME280;63121;51.458;-0.110;2023-03-23T04:07:34;99688.03;;;12.76;59.87
74615;BME280;63121;51.458;-0.110;2023-03-23T04:10:03;99693.00;;;12.34;60.96
74615;BME280;63121;51.458;-0.110;2023-03-23T04:12:30;99698.84;;;12.64;59.85
74615;BME280;63121;51.458;-0.110;2023-03-23T04:14:55;99696.03;;;11.95;61.72
74615;BME280;63121;51.458;-0.110;2023-03-23T04:17:21;99692.81;;;12.64;60.44
74615;BME280;63121;51.458;-0.110;2023-03-23T04:19:46;99700.97;;;12.53;60.17
74615;BME280;63121;51.458;-0.110;2023-03-23T04:22:12;99696.41;;;12.59;59.72
74615;BME280;63121;51.458;-0.110;2023-03-23T04:24:37;99703.78;;;12.22;61.00
74615;BME280;63121;51.458;-0.110;2023-03-23T04:27:03;99707.31;;;12.44;60.61
74615;BME280;63121;51.458;-0.110;2023-03-23T04:29:28;99708.53;;;12.82;59.32
74615;BME280;63121;51.458;-0.110;2023-03-23T04:31:54;99719.16;;;12.51;59.97
74615;BME280;63121;51.458;-0.110;2023-03-23T04:34:21;99715.81;;;12.48;60.30
74615;BME280;63121;51.458;-0.110;2023-03-23T04:36:46;99721.56;;;12.56;60.02
74615;BME280;63121;51.458;-0.110;2023-03-23T04:39:12;99720.84;;;12.52;60.35
74615;BME280;63121;51.458;-0.110;2023-03-23T04:41:39;99725.63;;;12.13;61.11
74615;BME280;63121;51.458;-0.110;2023-03-23T04:44:05;99724.94;;;12.58;60.52
74615;BME280;63121;51.458;-0.110;2023-03-23T04:46:32;99718.22;;;13.01;59.37
74615;BME280;63121;51.458;-0.110;2023-03-23T04:48:58;99728.47;;;12.80;59.49
74615;BME280;63121;51.458;-0.110;2023-03-23T04:51:25;99721.47;;;12.59;60.86
74615;BME280;63121;51.458;-0.110;2023-03-23T04:53:52;99727.66;;;12.55;60.96
74615;BME280;63121;51.458;-0.110;2023-03-23T04:56:18;99739.63;;;12.32;61.16
74615;BME280;63121;51.458;-0.110;2023-03-23T04:58:43;99733.25;;;12.68;60.77
74615;BME280;63121;51.458;-0.110;2023-03-23T05:01:10;99728.06;;;12.43;61.52
74615;BME280;63121;51.458;-0.110;2023-03-23T05:03:39;99740.56;;;12.31;62.09
74615;BME280;63121;51.458;-0.110;2023-03-23T05:06:05;99736.44;;;12.51;61.82
74615;BME280;63121;51.458;-0.110;2023-03-23T05:08:31;99732.25;;;12.22;63.06
74615;BME280;63121;51.458;-0.110;2023-03-23T05:10:58;99732.78;;;12.31;62.87
74615;BME280;63121;51.458;-0.110;2023-03-23T05:13:24;99733.66;;;12.55;61.92
74615;BME280;63121;51.458;-0.110;2023-03-23T05:15:50;99733.78;;;13.01;60.54
74615;BME280;63121;51.458;-0.110;2023-03-23T05:18:16;99728.75;;;12.48;62.21
74615;BME280;63121;51.458;-0.110;2023-03-23T05:20:41;99733.19;;;12.69;61.94
74615;BME280;63121;51.458;-0.110;2023-03-23T05:23:08;99735.00;;;12.42;62.69
74615;BME280;63121;51.458;-0.110;2023-03-23T05:25:35;99741.59;;;12.76;62.45
74615;BME280;63121;51.458;-0.110;2023-03-23T05:28:05;99726.13;;;12.49;62.77
74615;BME280;63121;51.458;-0.110;2023-03-23T05:30:31;99744.41;;;12.45;63.45
74615;BME280;63121;51.458;-0.110;2023-03-23T05:32:56;99743.44;;;12.47;63.47
74615;BME280;63121;51.458;-0.110;2023-03-23T05:35:22;99740.69;;;12.52;63.28
74615;BME280;63121;51.458;-0.110;2023-03-23T05:37:47;99748.34;;;12.30;63.95
74615;BME280;63121;51.458;-0.110;2023-03-23T05:40:13;99744.78;;;12.34;63.38
74615;BME280;63121;51.458;-0.110;2023-03-23T05:42:40;99746.44;;;12.35;63.18
74615;BME280;63121;51.458;-0.110;2023-03-23T05:45:11;99741.84;;;12.43;63.02
74615;BME280;63121;51.458;-0.110;2023-03-23T05:47:38;99744.22;;;12.24;63.97
74615;BME280;63121;51.458;-0.110;2023-03-23T05:50:04;99748.19;;;12.34;62.94
74615;BME280;63121;51.458;-0.110;2023-03-23T05:52:31;99734.56;;;12.04;63.87
74615;BME280;63121;51.458;-0.110;2023-03-23T05:54:57;99736.59;;;12.46;62.50
74615;BME280;63121;51.458;-0.110;2023-03-23T05:57:23;99732.13;;;12.25;63.15
74615;BME280;63121;51.458;-0.110;2023-03-23T05:59:48;99735.19;;;12.11;63.95
74615;BME280;63121;51.458;-0.110;2023-03-23T06:02:14;99739.56;;;12.35;62.97
74615;BME280;63121;51.458;-0.110;2023-03-23T06:04:40;99729.31;;;12.06;63.36
74615;BME280;63121;51.458;-0.110;2023-03-23T06:07:07;99721.06;;;12.46;62.25
74615;BME280;63121;51.458;-0.110;2023-03-23T06:09:33;99724.94;;;12.58;62.03
74615;BME280;63121;51.458;-0.110;2023-03-23T06:11:58;99719.16;;;12.51;62.38
74615;BME280;63121;51.458;-0.110;2023-03-23T06:14:23;99727.88;;;12.49;62.35
74615;BME280;63121;51.458;-0.110;2023-03-23T06:16:49;99727.69;;;12.28;62.88
74615;BME280;63121;51.458;-0.110;2023-03-23T06:19:14;99726.88;;;12.53;61.96
74615;BME280;63121;51.458;-0.110;2023-03-23T06:21:40;99720.19;;;12.46;62.00
74615;BME280;63121;51.458;-0.110;2023-03-23T06:24:06;99722.72;;;12.72;61.89
74615;BME280;63121;51.458;-0.110;2023-03-23T06:26:34;99719.69;;;12.61;62.33
74615;BME280;63121;51.458;-0.110;2023-03-23T06:29:00;99722.75;;;12.71;62.47
74615;BME280;63121;51.458;-0.110;2023-03-23T06:31:27;99725.66;;;12.87;62.87
74615;BME280;63121;51.458;-0.110;2023-03-23T06:33:52;99731.63;;;12.65;63.36
74615;BME280;63121;51.458;-0.110;2023-03-23T06:36:18;99729.13;;;12.86;63.40
74615;BME280;63121;51.458;-0.110;2023-03-23T06:38:44;99738.44;;;13.38;61.87
74615;BME280;63121;51.458;-0.110;2023-03-23T06:41:10;99741.94;;;13.59;61.56
74615;BME280;63121;51.458;-0.110;2023-03-23T06:43:35;99742.97;;;13.77;61.21
74615;BME280;63121;51.458;-0.110;2023-03-23T06:46:05;99734.44;;;13.30;61.71
74615;BME280;63121;51.458;-0.110;2023-03-23T06:48:30;99738.56;;;13.57;61.70
74615;BME280;63121;51.458;-0.110;2023-03-23T06:50:55;99737.78;;;13.55;61.98
74615;BME280;63121;51.458;-0.110;2023-03-23T06:53:21;99733.56;;;13.53;62.56
74615;BME280;63121;51.458;-0.110;2023-03-23T06:55:46;99733.44;;;13.34;62.94
74615;BME280;63121;51.458;-0.110;2023-03-23T06:58:12;99734.44;;;13.30;62.91
74615;BME280;63121;51.458;-0.110;2023-03-23T07:00:38;99718.59;;;13.37;62.55
74615;BME280;63121;51.458;-0.110;2023-03-23T07:03:05;99716.13;;;13.34;62.82
74615;BME280;63121;51.458;-0.110;2023-03-23T07:05:32;99723.41;;;13.01;63.30
74615;BME280;63121;51.458;-0.110;2023-03-23T07:07:58;99735.75;;;13.18;63.43
74615;BME280;63121;51.458;-0.110;2023-03-23T07:10:23;99729.34;;;13.50;62.50
74615;BME280;63121;51.458;-0.110;2023-03-23T07:12:48;99724.91;;;13.74;61.33
74615;BME280;63121;51.458;-0.110;2023-03-23T07:15:15;99730.06;;;13.54;62.61
74615;BME280;63121;51.458;-0.110;2023-03-23T07:17:40;99725.31;;;13.43;62.42
74615;BME280;63121;51.458;-0.110;2023-03-23T07:20:07;99718.41;;;13.86;61.56
74615;BME280;63121;51.458;-0.110;2023-03-23T07:22:33;99719.72;;;13.54;62.39
74615;BME280;63121;51.458;-0.110;2023-03-23T07:24:58;99718.06;;;13.73;62.41
74615;BME280;63121;51.458;-0.110;2023-03-23T07:27:24;99713.38;;;13.39;63.09
74615;BME280;63121;51.458;-0.110;2023-03-23T07:29:50;99714.84;;;13.89;62.21
74615;BME280;63121;51.458;-0.110;2023-03-23T07:32:16;99710.97;;;13.99;61.31
74615;BME280;63121;51.458;-0.110;2023-03-23T07:34:42;99718.97;;;14.15;61.23
74615;BME280;63121;51.458;-0.110;2023-03-23T07:37:08;99716.19;;;13.77;61.88
74615;BME280;63121;51.458;-0.110;2023-03-23T07:39:33;99721.22;;;14.02;61.32
74615;BME280;63121;51.458;-0.110;2023-03-23T07:41:59;99714.94;;;14.28;60.93
74615;BME280;63121;51.458;-0.110;2023-03-23T07:44:25;99718.56;;;14.24;60.97
74615;BME280;63121;51.458;-0.110;2023-03-23T07:46:50;99717.78;;;14.01;61.12
74615;BME280;63121;51.458;-0.110;2023-03-23T07:49:16;99724.06;;;13.96;61.20
74615;BME280;63121;51.458;-0.110;2023-03-23T07:51:42;99727.91;;;13.87;61.64
74615;BME280;63121;51.458;-0.110;2023-03-23T07:54:08;99727.53;;;14.17;60.39
74615;BME280;63121;51.458;-0.110;2023-03-23T07:56:34;99724.94;;;14.17;60.08
74615;BME280;63121;51.458;-0.110;2023-03-23T07:59:00;99722.81;;;14.68;59.39
74615;BME280;63121;51.458;-0.110;2023-03-23T08:01:28;99732.09;;;13.90;60.35
74615;BME280;63121;51.458;-0.110;2023-03-23T08:03:54;99736.94;;;14.19;59.72
74615;BME280;63121;51.458;-0.110;2023-03-23T08:06:22;99739.47;;;14.21;59.67
74615;BME280;63121;51.458;-0.110;2023-03-23T08:08:48;99733.09;;;14.69;58.19
74615;BME280;63121;51.458;-0.110;2023-03-23T08:11:15;99733.13;;;14.49;58.56
74615;BME280;63121;51.458;-0.110;2023-03-23T08:13:41;99741.84;;;14.46;58.41
74615;BME280;63121;51.458;-0.110;2023-03-23T08:16:08;99741.88;;;15.25;56.22
74615;BME280;63121;51.458;-0.110;2023-03-23T08:18:35;99742.38;;;14.75;57.03
74615;BME280;63121;51.458;-0.110;2023-03-23T08:21:02;99746.41;;;14.41;57.80
74615;BME280;63121;51.458;-0.110;2023-03-23T08:23:29;99741.53;;;15.14;55.90
74615;BME280;63121;51.458;-0.110;2023-03-23T08:25:55;99740.44;;;15.56;54.61
74615;BME280;63121;51.458;-0.110;2023-03-23T08:28:21;99747.94;;;15.62;54.72
74615;BME280;63121;51.458;-0.110;2023-03-23T08:30:46;99744.69;;;15.01;55.56
74615;BME280;63121;51.458;-0.110;2023-03-23T08:33:13;99763.09;;;15.16;55.95
74615;BME280;63121;51.458;-0.110;2023-03-23T08:35:39;99755.13;;;15.00;55.08
74615;BME280;63121;51.458;-0.110;2023-03-23T08:38:05;99762.44;;;15.11;54.69
74615;BME280;63121;51.458;-0.110;2023-03-23T08:40:31;99759.41;;;16.13;52.05
74615;BME280;63121;51.458;-0.110;2023-03-23T08:42:57;99763.28;;;16.22;51.93
74615;BME280;63121;51.458;-0.110;2023-03-23T08:45:24;99757.94;;;15.71;52.63
74615;BME280;63121;51.458;-0.110;2023-03-23T08:47:50;99766.28;;;16.49;50.91
74615;BME280;63121;51.458;-0.110;2023-03-23T08:50:18;99763.44;;;16.19;51.10
74615;BME280;63121;51.458;-0.110;2023-03-23T08:52:44;99774.59;;;16.03;51.13
74615;BME280;63121;51.458;-0.110;2023-03-23T08:55:11;99759.06;;;15.47;51.77
74615;BME280;63121;51.458;-0.110;2023-03-23T08:57:37;99760.78;;;15.29;52.50
74615;BME280;63121;51.458;-0.110;2023-03-23T09:00:05;99768.94;;;15.95;51.25
74615;BME280;63121;51.458;-0.110;2023-03-23T09:02:42;99765.19;;;16.18;50.62
74615;BME280;63121;51.458;-0.110;2023-03-23T09:05:08;99767.09;;;15.80;51.39
74615;BME280;63121;51.458;-0.110;2023-03-23T09:07:39;99767.09;;;15.97;51.54
74615;BME280;63121;51.458;-0.110;2023-03-23T09:10:06;99766.25;;;16.32;50.67
74615;BME280;63121;51.458;-0.110;2023-03-23T09:12:32;99762.09;;;15.75;52.36
74615;BME280;63121;51.458;-0.110;2023-03-23T09:14:58;99770.19;;;16.05;52.19
74615;BME280;63121;51.458;-0.110;2023-03-23T09:17:23;99770.16;;;15.88;52.54
74615;BME280;63121;51.458;-0.110;2023-03-23T09:19:48;99771.38;;;15.43;53.72
74615;BME280;63121;51.458;-0.110;2023-03-23T09:22:14;99760.81;;;15.84;53.30
74615;BME280;63121;51.458;-0.110;2023-03-23T09:24:40;99769.31;;;15.69;53.95
74615;BME280;63121;51.458;-0.110;2023-03-23T09:27:06;99771.00;;;16.06;53.40
74615;BME280;63121;51.458;-0.110;2023-03-23T09:29:31;99780.59;;;15.31;54.98
74615;BME280;63121;51.458;-0.110;2023-03-23T09:31:57;99757.03;;;16.09;53.37
74615;BME280;63121;51.458;-0.110;2023-03-23T09:34:23;99760.84;;;16.54;51.99
74615;BME280;63121;51.458;-0.110;2023-03-23T09:36:49;99764.44;;;17.02;50.47
74615;BME280;63121;51.458;-0.110;2023-03-23T09:39:15;99775.50;;;16.90;50.70
74615;BME280;63121;51.458;-0.110;2023-03-23T09:44:34;99758.38;;;16.51;49.98
74615;BME280;63121;51.458;-0.110;2023-03-23T09:47:11;99761.09;;;16.65;49.62
74615;BME280;63121;51.458;-0.110;2023-03-23T09:55:13;99760.78;;;16.71;48.49
74615;BME280;63121;51.458;-0.110;2023-03-23T09:57:47;99753.78;;;16.56;48.98
74615;BME280;63121;51.458;-0.110;2023-03-23T10:00:21;99768.00;;;16.83;47.82
74615;BME280;63121;51.458;-0.110;2023-03-23T10:03:09;99780.59;;;16.05;50.14
74615;BME280;63121;51.458;-0.110;2023-03-23T10:05:42;99757.53;;;16.67;49.18
74615;BME280;63121;51.458;-0.110;2023-03-23T10:08:19;99766.81;;;16.56;49.47
74615;BME280;63121;51.458;-0.110;2023-03-23T10:10:51;99769.03;;;16.11;50.21
74615;BME280;63121;51.458;-0.110;2023-03-23T10:16:04;99759.41;;;17.62;46.54
74615;BME280;63121;51.458;-0.110;2023-03-23T10:18:37;99750.91;;;17.75;46.70
74615;BME280;63121;51.458;-0.110;2023-03-23T10:21:04;99771.00;;;18.04;45.74
74615;BME280;63121;51.458;-0.110;2023-03-23T10:23:48;99762.09;;;17.13;46.94
74615;BME280;63121;51.458;-0.110;2023-03-23T10:28:46;99767.47;;;16.77;47.50
74615;BME280;63121;51.458;-0.110;2023-03-23T10:31:22;99777.06;;;16.59;48.48
74615;BME280;63121;51.458;-0.110;2023-03-23T10:33:50;99777.34;;;17.21;47.81
74615;BME280;63121;51.458;-0.110;2023-03-23T10:36:39;99785.03;;;16.56;49.03
74615;BME280;63121;51.458;-0.110;2023-03-23T10:39:10;99787.63;;;16.91;47.96
74615;BME280;63121;51.458;-0.110;2023-03-23T10:41:37;99807.13;;;17.17;46.38
74615;BME280;63121;51.458;-0.110;2023-03-23T10:44:11;99799.88;;;16.89;45.65
74615;BME280;63121;51.458;-0.110;2023-03-23T10:49:22;99816.13;;;16.59;46.87
74615;BME280;63121;51.458;-0.110;2023-03-23T10:55:00;99790.53;;;17.81;45.78
74615;BME280;63121;51.458;-0.110;2023-03-23T10:57:28;99804.66;;;17.14;47.51
74615;BME280;63121;51.458;-0.110;2023-03-23T11:00:15;99797.28;;;17.22;48.60
74615;BME280;63121;51.458;-0.110;2023-03-23T11:02:46;99781.88;;;17.81;47.44
74615;BME280;63121;51.458;-0.110;2023-03-23T11:05:23;99799.50;;;18.09;47.29
74615;BME280;63121;51.458;-0.110;2023-03-23T11:07:54;99791.53;;;18.11;46.71
74615;BME280;63121;51.458;-0.110;2023-03-23T11:10:47;99808.56;;;17.22;48.76
74615;BME280;63121;51.458;-0.110;2023-03-23T11:13:15;99795.13;;;17.78;47.74
74615;BME280;63121;51.458;-0.110;2023-03-23T11:15:43;99799.75;;;16.92;49.93
74615;BME280;63121;51.458;-0.110;2023-03-23T11:18:19;99790.84;;;16.96;49.82
74615;BME280;63121;51.458;-0.110;2023-03-23T11:20:48;99788.97;;;17.63;48.96
74615;BME280;63121;51.458;-0.110;2023-03-23T11:26:18;99789.38;;;18.03;48.54
74615;BME280;63121;51.458;-0.110;2023-03-23T11:31:16;99798.09;;;18.93;45.95
74615;BME280;63121;51.458;-0.110;2023-03-23T11:33:57;99809.47;;;18.17;47.38
74615;BME280;63121;51.458;-0.110;2023-03-23T11:36:35;99788.22;;;18.98;46.12
74615;BME280;63121;51.458;-0.110;2023-03-23T11:39:02;99780.88;;;18.29;47.32
74615;BME280;63121;51.458;-0.110;2023-03-23T11:41:33;99776.31;;;18.33;47.03
74615;BME280;63121;51.458;-0.110;2023-03-23T11:44:08;99773.66;;;18.49;46.25
74615;BME280;63121;51.458;-0.110;2023-03-23T11:46:45;99777.47;;;18.43;45.87
74615;BME280;63121;51.458;-0.110;2023-03-23T11:49:30;99774.31;;;18.67;46.05
74615;BME280;63121;51.458;-0.110;2023-03-23T11:55:20;99780.22;;;17.80;48.25
74615;BME280;63121;51.458;-0.110;2023-03-23T11:57:47;99783.41;;;18.31;47.32
74615;BME280;63121;51.458;-0.110;2023-03-23T12:00:18;99778.63;;;18.54;47.11
74615;BME280;63121;51.458;-0.110;2023-03-23T12:08:45;99765.19;;;19.32;44.61
74615;BME280;63121;51.458;-0.110;2023-03-23T12:11:30;99756.81;;;18.83;44.98
74615;BME280;63121;51.458;-0.110;2023-03-23T12:27:55;99745.25;;;19.43;44.56
74615;BME280;63121;51.458;-0.110;2023-03-23T12:42:06;99754.59;;;18.33;47.56
74615;BME280;63121;51.458;-0.110;2023-03-23T12:44:44;99731.28;;;19.16;45.31
74615;BME280;63121;51.458;-0.110;2023-03-23T12:50:09;99724.25;;;20.25;43.24
74615;BME280;63121;51.458;-0.110;2023-03-23T12:53:05;99720.75;;;19.03;44.61
74615;BME280;63121;51.458;-0.110;2023-03-23T12:55:39;99708.44;;;18.62;45.49
74615;BME280;63121;51.458;-0.110;2023-03-23T12:58:14;99699.63;;;18.63;44.66
74615;BME280;63121;51.458;-0.110;2023-03-23T13:01:02;99691.13;;;19.17;43.06
74615;BME280;63121;51.458;-0.110;2023-03-23T13:03:44;99721.00;;;18.69;44.02
74615;BME280;63121;51.458;-0.110;2023-03-23T13:09:00;99708.06;;;19.65;42.01
74615;BME280;63121;51.458;-0.110;2023-03-23T13:11:33;99720.66;;;18.90;43.48
74615;BME280;63121;51.458;-0.110;2023-03-23T13:14:26;99720.38;;;18.95;43.37
74615;BME280;63121;51.458;-0.110;2023-03-23T13:20:16;99719.41;;;18.38;44.28
74615;BME280;63121;51.458;-0.110;2023-03-23T13:22:54;99714.00;;;18.41;43.84
74615;BME280;63121;51.458;-0.110;2023-03-23T13:28:24;99711.78;;;18.93;43.87
74615;BME280;63121;51.458;-0.110;2023-03-23T13:33:32;99696.56;;;19.41;41.84
74615;BME280;63121;51.458;-0.110;2023-03-23T13:36:05;99682.19;;;19.06;42.85
74615;BME280;63121;51.458;-0.110;2023-03-23T13:38:34;99690.50;;;18.99;43.39
74615;BME280;63121;51.458;-0.110;2023-03-23T13:41:07;99663.09;;;19.46;42.35
74615;BME280;63121;51.458;-0.110;2023-03-23T13:43:33;99676.41;;;19.28;42.34
74615;BME280;63121;51.458;-0.110;2023-03-23T13:49:20;99681.34;;;19.60;42.14
74615;BME280;63121;51.458;-0.110;2023-03-23T13:54:44;99685.81;;;19.73;42.52
74615;BME280;63121;51.458;-0.110;2023-03-23T13:59:56;99686.47;;;17.91;45.50
74615;BME280;63121;51.458;-0.110;2023-03-23T14:02:38;99696.44;;;19.57;41.99
74615;BME280;63121;51.458;-0.110;2023-03-23T14:08:02;99667.63;;;19.29;40.83
74615;BME280;63121;51.458;-0.110;2023-03-23T14:10:43;99681.63;;;18.58;43.07
74615;BME280;63121;51.458;-0.110;2023-03-23T14:13:32;99692.81;;;19.45;41.55
74615;BME280;63121;51.458;-0.110;2023-03-23T14:16:13;99686.44;;;19.22;42.66
74615;BME280;63121;51.458;-0.110;2023-03-23T14:18:42;99693.19;;;18.54;43.62
74615;BME280;63121;51.458;-0.110;2023-03-23T14:21:21;99672.19;;;18.27;44.54
74615;BME280;63121;51.458;-0.110;2023-03-23T14:23:47;99673.41;;;18.50;45.10
74615;BME280;63121;51.458;-0.110;2023-03-23T14:26:16;99678.72;;;18.48;44.76
74615;BME280;63121;51.458;-0.110;2023-03-23T14:28:45;99666.78;;;18.44;44.66
74615;BME280;63121;51.458;-0.110;2023-03-23T14:31:25;99662.81;;;17.94;45.94
74615;BME280;63121;51.458;-0.110;2023-03-23T14:33:53;99657.44;;;18.12;45.92
74615;BME280;63121;51.458;-0.110;2023-03-23T14:36:26;99662.06;;;17.76;46.78
74615;BME280;63121;51.458;-0.110;2023-03-23T14:39:05;99659.81;;;17.70;47.72
74615;BME280;63121;51.458;-0.110;2023-03-23T14:41:33;99668.44;;;17.56;48.52
74615;BME280;63121;51.458;-0.110;2023-03-23T14:44:01;99664.22;;;17.54;48.57
74615;BME280;63121;51.458;-0.110;2023-03-23T14:46:27;99665.03;;;17.08;50.64